sensor_id;sensor_type;location;lat;lon;timestamp;temperature;humidity
35085;SHT85;21267;51.032;6.998;2023-02-24T06:04:02;4.64;90.53
35085;SHT85;21267;51.032;6.998;2023-02-24T06:13:51;4.46;90.87
35085;SHT85;21267;51.032;6.998;2023-02-24T06:50:36;4.81;88.62
35085;SHT85;21267;51.032;6.998;2023-02-24T06:53:08;4.92;88.60
35085;SHT85;21267;51.032;6.998;2023-02-24T07:14:05;4.94;86.09
35085;SHT85;21267;51.032;6.998;2023-02-24T08:02:10;5.16;82.16
35085;SHT85;21267;51.032;6.998;2023-02-24T08:08:30;5.40;81.74
35085;SHT85;21267;51.032;6.998;2023-02-24T08:22:28;5.29;80.80
35085;SHT85;21267;51.032;6.998;2023-02-24T08:28:45;5.31;81.65
35085;SHT85;21267;51.032;6.998;2023-02-24T09:50:44;5.60;78.24
35085;SHT85;21267;51.032;6.998;2023-02-24T10:49:18;6.00;75.53
35085;SHT85;21267;51.032;6.998;2023-02-24T11:13:00;5.69;75.87
35085;SHT85;21267;51.032;6.998;2023-02-24T11:51:37;5.42;80.32
35085;SHT85;21267;51.032;6.998;2023-02-24T11:57:46;5.42;80.82
35085;SHT85;21267;51.032;6.998;2023-02-24T12:00:31;5.25;80.09
35085;SHT85;21267;51.032;6.998;2023-02-24T18:58:39;6.05;91.16
35085;SHT85;21267;51.032;6.998;2023-02-24T19:01:14;6.05;91.38
35085;SHT85;21267;51.032;6.998;2023-02-24T19:03:42;6.05;91.24
35085;SHT85;21267;51.032;6.998;2023-02-24T19:06:25;6.04;91.17
35085;SHT85;21267;51.032;6.998;2023-02-24T19:09:08;6.00;90.75
35085;SHT85;21267;51.032;6.998;2023-02-24T19:11:49;5.89;91.63
35085;SHT85;21267;51.032;6.998;2023-02-24T19:14:31;5.63;91.55
35085;SHT85;21267;51.032;6.998;2023-02-24T19:16:57;5.55;91.78
35085;SHT85;21267;51.032;6.998;2023-02-24T19:19:26;5.43;91.96
35085;SHT85;21267;51.032;6.998;2023-02-24T19:21:53;5.35;92.31
35085;SHT85;21267;51.032;6.998;2023-02-24T19:24:19;5.42;92.01
35085;SHT85;21267;51.032;6.998;2023-02-24T19:26:47;5.35;92.00
35085;SHT85;21267;51.032;6.998;2023-02-24T19:29:16;5.32;92.58
35085;SHT85;21267;51.032;6.998;2023-02-24T19:31:57;5.28;92.51
35085;SHT85;21267;51.032;6.998;2023-02-24T19:34:24;5.29;92.39
35085;SHT85;21267;51.032;6.998;2023-02-24T19:36:51;5.31;92.33
35085;SHT85;21267;51.032;6.998;2023-02-24T19:39:17;5.38;92.27
35085;SHT85;21267;51.032;6.998;2023-02-24T19:41:49;5.35;92.42
35085;SHT85;21267;51.032;6.998;2023-02-24T19:44:16;5.35;92.50
35085;SHT85;21267;51.032;6.998;2023-02-24T19:46:43;5.42;92.44
35085;SHT85;21267;51.032;6.998;2023-02-24T19:49:09;5.40;92.50
35085;SHT85;21267;51.032;6.998;2023-02-24T19:51:36;5.39;92.90
35085;SHT85;21267;51.032;6.998;2023-02-24T19:54:03;5.38;92.24
35085;SHT85;21267;51.032;6.998;2023-02-24T19:56:33;5.34;92.49
35085;SHT85;21267;51.032;6.998;2023-02-24T19:59:04;5.39;92.48
35085;SHT85;21267;51.032;6.998;2023-02-24T20:01:31;5.26;92.19
35085;SHT85;21267;51.032;6.998;2023-02-24T20:03:59;5.22;92.26
35085;SHT85;21267;51.032;6.998;2023-02-24T20:06:32;5.28;92.19
35085;SHT85;21267;51.032;6.998;2023-02-24T20:09:05;5.24;92.42
35085;SHT85;21267;51.032;6.998;2023-02-24T20:11:35;5.24;92.30
35085;SHT85;21267;51.032;6.998;2023-02-24T20:14:10;5.25;92.49
35085;SHT85;21267;51.032;6.998;2023-02-24T20:16:40;5.26;92.42
35085;SHT85;21267;51.032;6.998;2023-02-24T20:19:09;5.22;92.52
35085;SHT85;21267;51.032;6.998;2023-02-24T20:21:37;5.21;92.38
35085;SHT85;21267;51.032;6.998;2023-02-24T20:24:14;5.18;92.09
35085;SHT85;21267;51.032;6.998;2023-02-24T20:26:44;5.18;92.51
35085;SHT85;21267;51.032;6.998;2023-02-24T20:29:17;5.15;92.65
35085;SHT85;21267;51.032;6.998;2023-02-24T20:31:44;5.24;92.25
35085;SHT85;21267;51.032;6.998;2023-02-24T20:34:12;5.15;92.23
35085;SHT85;21267;51.032;6.998;2023-02-24T20:36:40;5.19;92.23
35085;SHT85;21267;51.032;6.998;2023-02-24T20:39:07;5.21;92.19
35085;SHT85;21267;51.032;6.998;2023-02-24T20:41:33;5.24;92.17
35085;SHT85;21267;51.032;6.998;2023-02-24T20:44:00;5.16;92.00
35085;SHT85;21267;51.032;6.998;2023-02-24T20:46:28;5.21;92.07
35085;SHT85;21267;51.032;6.998;2023-02-24T20:49:06;5.21;91.31
35085;SHT85;21267;51.032;6.998;2023-02-24T20:51:35;5.18;91.16
35085;SHT85;21267;51.032;6.998;2023-02-24T20:54:04;5.15;91.25
35085;SHT85;21267;51.032;6.998;2023-02-24T20:56:33;5.08;90.38
35085;SHT85;21267;51.032;6.998;2023-02-24T21:01:29;4.99;89.75
35085;SHT85;21267;51.032;6.998;2023-02-24T21:03:56;4.98;89.85
35085;SHT85;21267;51.032;6.998;2023-02-24T21:06:23;4.88;90.05
35085;SHT85;21267;51.032;6.998;2023-02-24T21:08:50;4.85;89.91
35085;SHT85;21267;51.032;6.998;2023-02-24T21:11:19;4.80;89.93
35085;SHT85;21267;51.032;6.998;2023-02-24T21:13:47;4.77;90.18
35085;SHT85;21267;51.032;6.998;2023-02-24T21:16:15;4.77;89.99
35085;SHT85;21267;51.032;6.998;2023-02-24T21:18:44;4.77;89.92
35085;SHT85;21267;51.032;6.998;2023-02-24T21:21:11;4.78;90.27
35085;SHT85;21267;51.032;6.998;2023-02-24T21:23:40;4.76;90.84
35085;SHT85;21267;51.032;6.998;2023-02-24T21:26:08;4.78;90.94
35085;SHT85;21267;51.032;6.998;2023-02-24T21:28:35;4.87;91.11
35085;SHT85;21267;51.032;6.998;2023-02-24T21:31:10;5.01;91.25
35085;SHT85;21267;51.032;6.998;2023-02-24T21:33:37;5.05;90.86
35085;SHT85;21267;51.032;6.998;2023-02-24T21:36:06;5.07;91.12
35085;SHT85;21267;51.032;6.998;2023-02-24T21:38:34;5.03;91.19
35085;SHT85;21267;51.032;6.998;2023-02-24T21:41:01;5.09;90.70
35085;SHT85;21267;51.032;6.998;2023-02-24T21:43:28;5.05;90.97
35085;SHT85;21267;51.032;6.998;2023-02-24T21:45:55;5.03;91.03
35085;SHT85;21267;51.032;6.998;2023-02-24T21:48:25;5.07;91.06
35085;SHT85;21267;51.032;6.998;2023-02-24T21:50:59;5.03;91.07
35085;SHT85;21267;51.032;6.998;2023-02-24T21:53:26;5.04;91.07
35085;SHT85;21267;51.032;6.998;2023-02-24T21:56:10;5.05;91.04
35085;SHT85;21267;51.032;6.998;2023-02-24T21:59:02;5.01;91.24
35085;SHT85;21267;51.032;6.998;2023-02-24T22:01:33;4.95;91.34
35085;SHT85;21267;51.032;6.998;2023-02-24T22:04:03;4.99;91.04
35085;SHT85;21267;51.032;6.998;2023-02-24T22:06:32;5.01;90.98
35085;SHT85;21267;51.032;6.998;2023-02-24T22:09:00;4.99;90.75
35085;SHT85;21267;51.032;6.998;2023-02-24T22:11:30;4.97;90.73
35085;SHT85;21267;51.032;6.998;2023-02-24T22:13:57;4.91;90.58
35085;SHT85;21267;51.032;6.998;2023-02-24T22:16:24;4.85;90.81
35085;SHT85;21267;51.032;6.998;2023-02-24T22:18:52;4.78;90.98
35085;SHT85;21267;51.032;6.998;2023-02-24T22:21:21;4.84;90.35
35085;SHT85;21267;51.032;6.998;2023-02-24T22:23:52;4.84;89.73
35085;SHT85;21267;51.032;6.998;2023-02-24T22:26:20;4.83;89.96
35085;SHT85;21267;51.032;6.998;2023-02-24T22:28:49;4.85;89.81
35085;SHT85;21267;51.032;6.998;2023-02-24T22:31:18;4.84;89.81
35085;SHT85;21267;51.032;6.998;2023-02-24T22:33:45;4.80;89.61
35085;SHT85;21267;51.032;6.998;2023-02-24T22:36:15;4.76;89.73
35085;SHT85;21267;51.032;6.998;2023-02-24T22:38:43;4.80;89.39
35085;SHT85;21267;51.032;6.998;2023-02-24T22:41:13;4.83;89.50
35085;SHT85;21267;51.032;6.998;2023-02-24T22:43:41;4.83;89.50
35085;SHT85;21267;51.032;6.998;2023-02-24T22:46:16;4.84;88.93
35085;SHT85;21267;51.032;6.998;2023-02-24T22:48:43;4.91;88.87
35085;SHT85;21267;51.032;6.998;2023-02-24T22:51:11;4.83;89.07
35085;SHT85;21267;51.032;6.998;2023-02-24T22:53:41;4.81;89.36
35085;SHT85;21267;51.032;6.998;2023-02-24T22:56:10;4.89;89.08
35085;SHT85;21267;51.032;6.998;2023-02-24T22:58:37;4.88;88.85
35085;SHT85;21267;51.032;6.998;2023-02-24T23:01:22;4.81;88.92
35085;SHT85;21267;51.032;6.998;2023-02-24T23:03:49;4.87;88.69
35085;SHT85;21267;51.032;6.998;2023-02-24T23:06:22;4.84;88.87
35085;SHT85;21267;51.032;6.998;2023-02-24T23:08:50;4.88;88.58
35085;SHT85;21267;51.032;6.998;2023-02-24T23:11:44;4.77;88.53
35085;SHT85;21267;51.032;6.998;2023-02-24T23:14:12;4.83;88.51
35085;SHT85;21267;51.032;6.998;2023-02-24T23:16:40;4.77;88.59
35085;SHT85;21267;51.032;6.998;2023-02-24T23:19:11;4.77;88.47
35085;SHT85;21267;51.032;6.998;2023-02-24T23:21:44;4.73;88.62
35085;SHT85;21267;51.032;6.998;2023-02-24T23:24:13;4.76;88.26
35085;SHT85;21267;51.032;6.998;2023-02-24T23:26:43;4.68;88.29
35085;SHT85;21267;51.032;6.998;2023-02-24T23:29:12;4.71;88.33
35085;SHT85;21267;51.032;6.998;2023-02-24T23:31:40;4.67;88.32
35085;SHT85;21267;51.032;6.998;2023-02-24T23:34:08;4.68;88.47
35085;SHT85;21267;51.032;6.998;2023-02-24T23:36:38;4.61;88.54
35085;SHT85;21267;51.032;6.998;2023-02-24T23:39:06;4.67;88.40
35085;SHT85;21267;51.032;6.998;2023-02-24T23:41:35;4.66;88.14
35085;SHT85;21267;51.032;6.998;2023-02-24T23:44:03;4.67;88.07
35085;SHT85;21267;51.032;6.998;2023-02-24T23:46:30;4.68;88.00
35085;SHT85;21267;51.032;6.998;2023-02-24T23:48:57;4.66;88.34
35085;SHT85;21267;51.032;6.998;2023-02-24T23:51:24;4.58;88.25
35085;SHT85;21267;51.032;6.998;2023-02-24T23:53:53;4.64;87.87
35085;SHT85;21267;51.032;6.998;2023-02-24T23:56:24;4.57;87.89
35085;SHT85;21267;51.032;6.998;2023-02-24T23:58:54;4.56;87.98
